Pagrindinis puslapis
METAR-TAF:

METAR-TAF

Oro uostai :

Tozeur, Tunisas

platuma: 33-55N, ilguma: 008-06E, Aukštis: 87 m

Dabartinis oras

Ataskaita buvo paskelbta 24 minutes, ne 00:00 UTC
Vėjas 15 kt iš Rytų
Temperatūra 33°C
Drėgmė 24%
Slėgis 1015 hPa
Matomumas 10 km arba daugiau
nėra debesų žemiau 1500 m ir nėra kamuolinių lietaus debesų

METAR: DTTZ 190000Z 09015KT CAVOK 33/10 Q1015

Laikas: 01:24 (00:24 UTC)

Prognozė

Ataskaita buvo paskelbta 1 valandą ir 24 minutes, ne 23:00 UTC
Prognozė galioja nuo 19 metu 00 UTC su 19 metu 24 UTC
Vėjas 15 kt iš Rytų
Matomumas 10 km arba daugiau
nėra debesų žemiau 1500 m ir nėra kamuolinių lietaus debesų
Tapsmas
nuo 19 metu 13 UTC su 19 metu 15 UTC
Vėjas 2 kt nuo kintamojo kryptimis
Tapsmas
nuo 19 metu 19 UTC su 19 metu 21 UTC
Vėjas 14 kt iš Rytų/Pietryčių

TAF: DTTZ 182300Z 1900/1924 09015KT CAVOK BECMG 1913/1915 VRB02KT BECMG 1919/1921 11014KT

Orai ataskaitas ir orų prognozės (METAR, TAF).

turimą stotys yra geltonos ir raudonos taškus žemėlapyje.

Perkelti pele per norėdami pamatyti stoties vardą.

Tada spustelėkite, norėdami matyti oro stebėjimo ir prognozės.

Norėdami pakeisti žemėlapį: spustelėkite ant žalios mygtukų su juodo kryžiaus žemyn,; žalią mygtuką su brūkšneliu, jei norite nutolinti; arba žalių rodyklių gretimoms žemėlapius.


METAR-TAF: